Time;durP1;ratioP1;P1;durP2;ratioP2;P2;SDS_P1;SDS_P2;PMS_P1;PMS_P2;Temp;Humidity;BMP_temperature;BMP_pressure;BME280_temperature;BME280_humidity;BME280_pressure;Samples;Min_cycle;Max_cycle;Signal;HPM_P1;HPM_P2
2022/08/09 00:01:36;;;;;;;9.02;5.72;;;;;;;18.37;92.77;98788.81;5018109;28;20057;-94
2022/08/09 00:04:02;;;;;;;10.95;6.50;;;;;;;18.21;92.42;98778.91;5017876;28;20041;-94
2022/08/09 00:06:28;;;;;;;8.65;6.15;;;;;;;18.17;93.53;98785.47;5032691;28;20045;-96
2022/08/09 00:08:54;;;;;;;8.05;6.30;;;;;;;18.06;94.23;98769.94;5027254;28;20095;-92
2022/08/09 00:11:20;;;;;;;10.23;6.05;;;;;;;18.12;94.06;98773.22;5017821;28;20056;-94
2022/08/09 00:13:48;;;;;;;10.82;6.40;;;;;;;18.10;95.09;98769.75;5017668;28;20483;-95
2022/08/09 00:16:14;;;;;;;10.15;5.95;;;;;;;18.12;95.05;98774.06;5017820;28;20076;-95
2022/08/09 00:18:40;;;;;;;9.52;6.57;;;;;;;18.09;95.29;98776.09;5017590;28;20034;-95
2022/08/09 00:21:07;;;;;;;8.77;6.00;;;;;;;17.89;94.94;98751.22;5017612;28;20108;-96
2022/08/09 00:23:34;;;;;;;7.95;5.95;;;;;;;17.92;95.33;98748.31;5017644;28;20041;-95
2022/08/09 00:26:00;;;;;;;7.43;5.97;;;;;;;17.95;92.01;98758.03;5016543;28;20125;-95
2022/08/09 00:28:26;;;;;;;7.75;5.93;;;;;;;17.90;93.34;98744.00;5017385;28;20081;-95
2022/08/09 00:30:55;;;;;;;9.57;6.15;;;;;;;18.08;93.58;98767.13;5017818;28;20046;-93
2022/08/09 00:33:21;;;;;;;9.98;6.50;;;;;;;18.00;92.75;98747.88;5017632;28;20136;-94
2022/08/09 00:35:47;;;;;;;6.97;5.55;;;;;;;17.98;91.98;98733.66;5017751;28;20026;-94
2022/08/09 00:38:14;;;;;;;9.75;6.13;;;;;;;18.13;91.53;98754.31;5017360;28;20042;-93
2022/08/09 00:40:40;;;;;;;11.05;5.32;;;;;;;18.02;89.95;98724.44;5016234;28;20042;-94
2022/08/09 00:43:06;;;;;;;9.27;5.85;;;;;;;18.19;90.11;98742.28;5016803;28;20049;-93
2022/08/09 00:45:33;;;;;;;7.90;5.80;;;;;;;18.18;91.52;98736.03;5017403;28;20049;-95
2022/08/09 00:48:00;;;;;;;10.38;5.13;;;;;;;18.13;84.88;98697.78;5017115;28;20137;-94
2022/08/09 00:50:26;;;;;;;7.95;5.55;;;;;;;18.36;86.98;98706.31;5017202;28;20038;-94
2022/08/09 00:52:53;;;;;;;7.18;5.40;;;;;;;18.41;86.96;98693.41;5017124;28;20517;-91
2022/08/09 00:55:19;;;;;;;7.47;5.75;;;;;;;18.59;88.42;98716.56;5017601;28;20054;-93
2022/08/09 00:57:45;;;;;;;10.77;6.25;;;;;;;18.61;86.64;98705.69;5017145;28;20129;-94
2022/08/09 01:00:13;;;;;;;7.63;5.47;;;;;;;18.47;86.64;98688.53;5016923;28;20132;-93
2022/08/09 01:02:45;;;;;;;7.88;5.88;;;;;;;18.60;87.60;98710.19;5256096;22;20024;-94
2022/08/09 01:05:20;;;;;;;7.38;5.60;;;;;;;18.62;88.18;98702.88;5037032;28;20053;-93
2022/08/09 01:08:03;;;;;;;8.63;5.93;;;;;;;18.71;88.60;98712.22;5036559;28;20041;-94
2022/08/09 01:10:37;;;;;;;7.97;5.55;;;;;;;18.58;88.71;98693.25;5038342;28;20046;-94
2022/08/09 01:13:12;;;;;;;8.30;6.30;;;;;;;18.64;88.06;98710.88;5036886;28;20073;-93
2022/08/09 01:15:44;;;;;;;7.50;6.25;;;;;;;18.63;88.44;98707.34;5036093;28;20041;-94
2022/08/09 01:18:15;;;;;;;8.00;6.40;;;;;;;18.70;79.63;98705.13;5036340;28;20037;-94
2022/08/09 01:20:48;;;;;;;7.18;6.43;;;;;;;19.40;69.97;98710.63;5032083;28;20037;-95
2022/08/09 01:23:33;;;;;;;7.32;5.72;;;;;;;19.70;73.90;98717.75;5037415;28;20026;-95
2022/08/09 01:26:17;;;;;;;8.02;6.15;;;;;;;19.76;76.47;98720.06;5038238;28;20046;-96
2022/08/09 01:28:49;;;;;;;10.65;5.90;;;;;;;19.61;80.12;98703.00;5039176;28;20051;-95
2022/08/09 01:31:18;;;;;;;8.02;5.53;;;;;;;19.50;82.23;98717.19;5038480;28;20064;-94
2022/08/09 01:33:45;;;;;;;;;;;;;;;19.47;83.99;98749.75;5040115;28;20045;-95
2022/08/09 01:36:13;;;;;;;8.02;6.18;;;;;;;19.24;85.10;98728.78;5037436;28;19921;-95
2022/08/09 01:38:43;;;;;;;12.48;6.45;;;;;;;19.15;87.05;98742.81;5036445;28;20401;-95
2022/08/09 01:41:14;;;;;;;10.02;6.53;;;;;;;19.03;87.99;98756.09;5036320;28;20045;-95
2022/08/09 01:43:50;;;;;;;9.07;6.32;;;;;;;18.91;87.99;98746.09;5036679;28;20497;-95
2022/08/09 01:46:19;;;;;;;8.50;6.97;;;;;;;18.75;88.46;98734.47;5037299;28;20049;-95
2022/08/09 01:48:46;;;;;;;;;;;;;;;18.90;87.56;98759.66;5038415;28;20490;-95
2022/08/09 01:51:14;;;;;;;10.23;6.45;;;;;;;18.66;88.74;98742.16;5038315;28;20397;-95
2022/08/09 01:53:41;;;;;;;10.43;6.47;;;;;;;18.65;89.14;98744.91;5037631;28;20043;-94
2022/08/09 01:56:08;;;;;;;10.00;6.80;;;;;;;18.66;90.93;98742.16;5039275;28;20271;-94
2022/08/09 01:58:36;;;;;;;8.52;6.30;;;;;;;18.73;90.92;98750.72;5038498;28;20095;-95
2022/08/09 02:01:04;;;;;;;9.55;6.70;;;;;;;18.78;91.99;98767.53;5036659;28;20498;-94
2022/08/09 02:03:34;;;;;;;12.10;7.03;;;;;;;18.68;90.81;98760.91;5036048;28;20081;-95
2022/08/09 02:06:04;;;;;;;8.43;6.60;;;;;;;18.65;91.25;98756.59;5036782;28;20045;-95
2022/08/09 02:08:31;;;;;;;9.18;6.55;;;;;;;18.63;91.82;98763.03;5037911;28;20495;-94
2022/08/09 02:11:01;;;;;;;11.57;6.43;;;;;;;18.62;91.36;98762.13;5039768;28;20049;-96
2022/08/09 02:13:29;;;;;;;8.95;6.63;;;;;;;18.57;90.60;98758.88;5037360;28;20058;-95
2022/08/09 02:15:56;;;;;;;9.20;6.60;;;;;;;18.48;91.27;98745.97;5036447;28;20040;-95
2022/08/09 02:18:27;;;;;;;9.07;6.93;;;;;;;18.48;91.74;98749.50;5036784;28;20045;-95
2022/08/09 02:20:58;;;;;;;14.38;6.95;;;;;;;18.48;91.75;98762.13;5037500;28;20042;-95
2022/08/09 02:23:29;;;;;;;7.88;6.50;;;;;;;18.46;92.63;98745.19;5030078;28;20046;-94
2022/08/09 02:25:58;;;;;;;10.50;7.18;;;;;;;18.54;91.63;98763.56;5036762;28;20050;-94
2022/08/09 02:28:30;;;;;;;9.10;6.60;;;;;;;18.53;87.88;98757.31;5037138;28;20479;-93
2022/08/09 02:31:01;;;;;;;7.95;6.50;;;;;;;18.59;83.88;98737.25;5038016;28;20103;-93
2022/08/09 02:33:34;;;;;;;9.45;6.55;;;;;;;18.72;84.96;98754.38;5037742;28;20103;-95
2022/08/09 02:36:03;;;;;;;13.52;6.35;;;;;;;18.74;87.33;98763.25;5037877;28;20088;-96
2022/08/09 02:38:33;;;;;;;8.95;6.63;;;;;;;18.66;88.24;98746.69;5023063;28;20498;-94
2022/08/09 02:41:05;;;;;;;8.02;6.05;;;;;;;18.74;89.28;98762.38;5037448;28;20041;-95
2022/08/09 02:43:33;;;;;;;8.30;6.18;;;;;;;18.70;89.44;98748.22;5037991;28;20041;-94
2022/08/09 02:46:00;;;;;;;9.90;7.13;;;;;;;18.75;89.88;98761.41;5037785;28;20174;-94
2022/08/09 02:48:30;;;;;;;7.35;6.13;;;;;;;18.76;89.94;98755.06;5038746;28;20038;-94
2022/08/09 02:50:59;;;;;;;8.88;6.55;;;;;;;18.72;89.04;98753.53;5040360;28;20434;-95
2022/08/09 02:53:27;;;;;;;;;;;;;;;18.78;88.81;98772.03;5042002;28;20046;-95
2022/08/09 02:55:57;;;;;;;9.03;6.20;;;;;;;18.74;89.35;98767.78;5042684;28;19921;-95
2022/08/09 02:58:25;;;;;;;9.57;6.88;;;;;;;18.61;88.99;98748.78;5037493;28;20564;-95
2022/08/09 03:00:52;;;;;;;8.73;6.85;;;;;;;18.52;89.95;98736.75;5041829;28;20065;-94
2022/08/09 03:03:20;;;;;;;10.82;6.75;;;;;;;18.47;90.61;98726.22;5041793;28;20026;-95
2022/08/09 03:05:50;;;;;;;9.15;6.53;;;;;;;18.64;92.06;98752.16;5040859;28;20045;-96
2022/08/09 03:08:18;;;;;;;10.65;6.88;;;;;;;18.62;91.43;98745.97;5040159;28;20041;-94
2022/08/09 03:10:45;;;;;;;8.43;6.70;;;;;;;18.66;90.58;98752.91;5040313;28;20131;-94
2022/08/09 03:13:12;;;;;;;7.63;6.03;;;;;;;18.68;82.50;98728.59;5040239;28;20479;-95
2022/08/09 03:15:39;;;;;;;7.57;6.05;;;;;;;18.87;80.74;98737.31;5039745;28;20057;-95
2022/08/09 03:18:06;;;;;;;7.43;5.93;;;;;;;19.00;81.22;98750.03;5040793;28;20107;-94
2022/08/09 03:20:32;;;;;;;9.73;6.38;;;;;;;19.10;79.37;98751.19;5039816;28;20041;-94
2022/08/09 03:23:00;;;;;;;8.48;6.18;;;;;;;19.16;78.01;98739.16;5039173;28;20045;-94
2022/08/09 03:25:27;;;;;;;8.10;5.78;;;;;;;19.28;77.49;98746.50;5038572;28;20398;-94
2022/08/09 03:27:55;;;;;;;7.43;6.10;;;;;;;19.14;77.63;98716.81;5039481;28;20121;-95
2022/08/09 03:30:22;;;;;;;7.70;6.20;;;;;;;19.14;77.56;98724.91;5038600;28;20132;-93
2022/08/09 03:32:50;;;;;;;7.05;5.95;;;;;;;19.22;78.01;98741.47;5037794;28;20045;-94
2022/08/09 03:35:16;;;;;;;9.23;6.78;;;;;;;19.18;77.76;98734.53;5037734;28;20823;-93
2022/08/09 03:37:42;;;;;;;7.93;6.07;;;;;;;19.25;77.00;98738.56;5037946;28;20034;-93
2022/08/09 03:40:11;;;;;;;7.20;5.97;;;;;;;19.28;76.20;98719.53;5038082;28;20040;-95
2022/08/09 03:42:38;;;;;;;8.57;6.22;;;;;;;19.39;75.08;98718.84;5037438;28;20497;-93
2022/08/09 03:45:05;;;;;;;9.18;6.30;;;;;;;19.47;75.08;98721.88;5035574;28;20047;-92
2022/08/09 03:47:31;;;;;;;9.95;6.55;;;;;;;19.54;74.44;98722.38;5038035;28;20125;-92
2022/08/09 03:50:00;;;;;;;8.45;6.15;;;;;;;19.61;74.44;98726.41;5037155;28;20466;-95
2022/08/09 03:52:28;;;;;;;8.05;6.30;;;;;;;19.54;74.91;98723.25;5038238;28;20033;-93
2022/08/09 03:54:57;;;;;;;8.73;6.30;;;;;;;19.58;74.26;98718.50;5038967;28;20042;-95
2022/08/09 03:57:25;;;;;;;8.40;5.93;;;;;;;19.57;74.31;98727.56;5034901;28;20064;-94
2022/08/09 03:59:52;;;;;;;8.85;6.32;;;;;;;19.70;73.75;98732.09;5037164;28;20045;-94
2022/08/09 04:02:19;;;;;;;7.88;6.35;;;;;;;19.66;73.29;98713.47;5037965;28;20068;-94
2022/08/09 04:04:45;;;;;;;8.02;6.60;;;;;;;19.80;73.01;98731.50;5037046;28;20049;-92
2022/08/09 04:07:11;;;;;;;7.10;6.25;;;;;;;19.93;71.86;98724.34;5037241;28;20064;-95
2022/08/09 04:09:37;;;;;;;7.32;6.55;;;;;;;19.98;72.12;98733.00;5037127;28;20041;-93
2022/08/09 04:12:32;;;;;;;10.27;6.47;;;;;;;19.99;72.86;98734.72;5037906;28;20041;-93
2022/08/09 04:14:59;;;;;;;10.55;6.60;;;;;;;19.95;72.17;98722.41;5031447;28;20464;-94
2022/08/09 04:17:26;;;;;;;8.07;6.40;;;;;;;19.93;72.45;98720.75;5037102;28;20095;-92
2022/08/09 04:19:51;;;;;;;7.82;6.22;;;;;;;19.97;72.19;98735.78;5037640;28;20037;-94
2022/08/09 04:22:17;;;;;;;8.27;6.18;;;;;;;19.98;71.80;98734.84;5036519;28;20125;-95
2022/08/09 04:24:43;;;;;;;7.68;6.63;;;;;;;20.03;72.30;98748.88;5036405;28;20045;-92
2022/08/09 04:27:09;;;;;;;7.68;6.43;;;;;;;19.93;71.96;98726.16;5035463;28;20068;-96
2022/08/09 04:29:35;;;;;;;10.52;6.28;;;;;;;20.00;72.02;98736.47;5036785;28;20507;-95
2022/08/09 04:32:03;;;;;;;10.02;6.60;;;;;;;20.04;71.54;98743.38;5036978;28;20048;-90
2022/08/09 04:34:32;;;;;;;8.13;6.10;;;;;;;20.08;71.27;98727.81;5036127;28;20373;-94
2022/08/09 04:36:58;;;;;;;8.20;6.63;;;;;;;20.09;70.64;98727.72;5036555;28;20048;-92
2022/08/09 04:39:24;;;;;;;8.27;6.85;;;;;;;20.21;71.00;98754.88;5036577;28;20037;-93
2022/08/09 04:41:50;;;;;;;9.13;6.57;;;;;;;20.14;70.42;98732.81;5036554;28;20099;-92
2022/08/09 04:44:16;;;;;;;9.90;7.47;;;;;;;20.08;71.09;98739.53;5035811;28;20029;-94
2022/08/09 04:46:42;;;;;;;8.95;6.22;;;;;;;20.15;71.80;98756.16;5037151;28;20061;-93
2022/08/09 04:49:09;;;;;;;10.35;7.07;;;;;;;20.13;71.29;98755.41;5035973;28;20133;-92
2022/08/09 04:51:35;;;;;;;8.30;6.78;;;;;;;20.15;71.99;98756.16;5036091;28;20041;-92
2022/08/09 04:54:01;;;;;;;8.40;6.38;;;;;;;20.11;71.33;98752.81;5036554;28;20029;-94
2022/08/09 04:56:29;;;;;;;10.50;6.45;;;;;;;20.02;72.23;98750.72;5035439;28;20537;-94
2022/08/09 04:58:55;;;;;;;7.78;6.28;;;;;;;19.98;71.89;98745.63;5035521;28;20060;-92
2022/08/09 05:01:21;;;;;;;8.85;6.50;;;;;;;20.02;72.35;98744.47;5036554;28;20029;-93
2022/08/09 05:03:47;;;;;;;9.50;5.90;;;;;;;20.02;72.85;98761.50;5035185;28;20053;-95
2022/08/09 05:06:15;;;;;;;9.15;6.10;;;;;;;20.07;72.70;98775.56;5035641;28;20101;-94
2022/08/09 05:08:41;;;;;;;11.63;6.30;;;;;;;20.14;72.39;98772.47;5037405;28;20037;-94
2022/08/09 05:11:07;;;;;;;8.63;6.57;;;;;;;20.16;72.84;98782.19;5035846;28;20427;-93
2022/08/09 05:13:34;;;;;;;9.73;6.53;;;;;;;19.94;72.06;98753.06;5035519;28;20382;-95
2022/08/09 05:16:00;;;;;;;7.63;6.00;;;;;;;19.99;72.88;98766.25;5033974;28;20042;-95
2022/08/09 05:18:29;;;;;;;8.07;6.35;;;;;;;19.95;72.48;98751.22;5034122;28;20132;-94
2022/08/09 05:20:55;;;;;;;;;;;;;;;20.13;72.41;98785.09;5034144;28;20072;-93
2022/08/09 05:23:23;;;;;;;7.35;5.90;;;;;;;20.11;72.20;98776.25;5034558;28;19955;-93
2022/08/09 05:25:49;;;;;;;9.07;6.50;;;;;;;20.07;71.85;98745.88;5034126;28;20038;-95
2022/08/09 05:28:16;;;;;;;10.85;6.28;;;;;;;20.28;71.53;98767.88;5033297;28;20071;-94
2022/08/09 05:30:42;;;;;;;7.70;6.18;;;;;;;20.34;71.25;98777.38;5034228;28;20502;-95
2022/08/09 05:33:08;;;;;;;9.00;6.35;;;;;;;20.29;71.33;98775.00;5033399;28;20072;-94
2022/08/09 05:35:34;;;;;;;8.63;6.05;;;;;;;20.27;71.38;98776.06;5034155;28;20544;-93
2022/08/09 05:38:01;;;;;;;8.45;6.50;;;;;;;20.18;71.72;98765.91;5033518;28;20041;-91
2022/08/09 05:40:28;;;;;;;8.05;6.60;;;;;;;20.29;71.40;98791.19;5033226;28;20037;-93
2022/08/09 05:42:54;;;;;;;8.05;6.28;;;;;;;20.40;71.42;98786.94;5033339;28;20048;-95
2022/08/09 05:45:20;;;;;;;6.88;5.70;;;;;;;20.41;70.99;98775.16;5034471;28;20034;-94
2022/08/09 05:47:46;;;;;;;7.22;6.22;;;;;;;20.53;70.97;98788.69;5034172;28;20124;-92
2022/08/09 05:50:12;;;;;;;11.10;6.40;;;;;;;20.46;70.39;98776.56;5035987;28;20109;-95
2022/08/09 05:52:39;;;;;;;8.18;6.15;;;;;;;20.64;69.88;98796.09;5040806;28;20081;-96
2022/08/09 05:55:10;;;;;;;7.85;6.00;;;;;;;20.66;69.20;98769.84;5041488;28;20038;-95
2022/08/09 05:57:38;;;;;;;9.68;5.97;;;;;;;20.79;69.81;98790.63;5039964;28;20049;-96
2022/08/09 06:00:07;;;;;;;8.13;6.30;;;;;;;20.85;69.60;98787.50;5040782;28;20053;-94
2022/08/09 06:02:33;;;;;;;7.95;6.20;;;;;;;20.88;69.83;98760.25;5041627;28;20065;-96
2022/08/09 06:05:01;;;;;;;7.68;6.13;;;;;;;21.01;69.30;98769.22;5043082;28;20104;-96
2022/08/09 06:07:28;;;;;;;10.05;6.05;;;;;;;21.06;68.57;98795.97;5035454;28;20048;-93
2022/08/09 06:09:54;;;;;;;8.32;6.10;;;;;;;21.04;69.35;98789.81;5033973;28;20084;-94
2022/08/09 06:12:20;;;;;;;7.72;6.28;;;;;;;21.09;68.59;98787.63;5035317;28;20037;-92
2022/08/09 06:14:47;;;;;;;9.27;7.18;;;;;;;20.87;69.33;98778.31;5034694;28;20042;-94
2022/08/09 06:17:14;;;;;;;8.68;7.13;;;;;;;21.05;69.23;98789.69;5035325;28;20073;-95
2022/08/09 06:19:40;;;;;;;9.10;6.28;;;;;;;21.17;68.98;98782.56;5033845;28;20495;-94
2022/08/09 06:22:06;;;;;;;7.53;6.43;;;;;;;21.13;68.69;98765.69;5035664;28;20107;-94
2022/08/09 06:24:32;;;;;;;8.35;6.32;;;;;;;21.30;68.66;98761.78;5036562;28;20554;-95
2022/08/09 06:26:58;;;;;;;8.93;6.40;;;;;;;21.45;67.99;98783.34;5043584;28;20063;-94
2022/08/09 06:29:24;;;;;;;7.90;5.97;;;;;;;21.47;67.88;98762.44;5060016;28;20076;-94
2022/08/09 06:31:51;;;;;;;8.10;6.47;;;;;;;21.58;68.12;98764.34;5038964;28;20038;-93
2022/08/09 06:34:18;;;;;;;9.10;7.07;;;;;;;21.61;68.56;98781.25;5039973;28;20034;-96
2022/08/09 06:36:44;;;;;;;7.50;6.15;;;;;;;21.63;68.15;98779.31;5039013;28;20103;-93
2022/08/09 06:39:11;;;;;;;8.40;6.60;;;;;;;21.47;69.67;98768.72;5039103;28;20033;-95
2022/08/09 06:41:38;;;;;;;10.63;6.95;;;;;;;21.53;69.20;98781.81;5037999;28;20091;-92
2022/08/09 06:44:04;;;;;;;9.50;7.30;;;;;;;21.61;69.58;98758.75;5039169;28;20063;-94
2022/08/09 06:46:31;;;;;;;8.02;6.72;;;;;;;21.76;69.68;98773.00;5039033;28;20571;-96
2022/08/09 06:48:59;;;;;;;8.95;6.82;;;;;;;21.95;68.98;98786.91;5039939;28;20141;-95
2022/08/09 06:51:25;;;;;;;13.35;7.13;;;;;;;22.08;68.69;98787.75;5038177;28;20041;-95
2022/08/09 06:53:51;;;;;;;11.50;6.88;;;;;;;22.09;68.22;98800.28;5039724;28;20087;-93
2022/08/09 06:56:17;;;;;;;9.48;6.70;;;;;;;22.10;67.98;98790.34;5040451;28;20125;-93
2022/08/09 06:58:42;;;;;;;9.52;6.72;;;;;;;22.22;67.55;98802.09;5039480;28;20048;-93
2022/08/09 07:01:08;;;;;;;8.77;6.50;;;;;;;22.22;67.85;98791.25;5038111;28;20045;-95
2022/08/09 07:03:35;;;;;;;8.20;6.22;;;;;;;22.49;67.98;98799.22;5039089;28;20052;-95
2022/08/09 07:06:03;;;;;;;9.68;6.68;;;;;;;22.37;68.05;98794.69;5038562;28;20049;-95
2022/08/09 07:08:29;;;;;;;7.32;5.82;;;;;;;22.63;66.52;98812.56;5039781;28;20112;-95
2022/08/09 07:10:55;;;;;;;8.93;6.65;;;;;;;22.56;66.78;98786.91;5038744;28;20045;-93
2022/08/09 07:13:21;;;;;;;8.35;6.00;;;;;;;22.61;66.53;98809.09;5040570;28;20041;-94
2022/08/09 07:15:47;;;;;;;9.55;6.03;;;;;;;22.69;66.37;98814.81;5040504;28;20063;-96
2022/08/09 07:18:13;;;;;;;10.10;5.97;;;;;;;22.71;65.02;98804.72;5040816;28;20075;-95
2022/08/09 07:20:39;;;;;;;8.05;6.30;;;;;;;22.73;64.83;98802.75;5041925;28;20068;-96
2022/08/09 07:23:09;;;;;;;8.30;5.78;;;;;;;22.80;64.68;98818.56;5039701;28;20049;-96
2022/08/09 07:25:36;;;;;;;8.57;5.95;;;;;;;22.83;65.02;98815.59;5044204;28;20060;-95
2022/08/09 07:28:02;;;;;;;7.90;5.25;;;;;;;22.82;63.59;98820.16;5041556;28;20081;-91
2022/08/09 07:30:28;;;;;;;8.93;5.80;;;;;;;22.86;63.64;98820.78;5039154;28;20068;-95
2022/08/09 07:32:54;;;;;;;8.00;5.45;;;;;;;22.85;64.00;98832.59;5041476;28;20103;-96
2022/08/09 07:35:23;;;;;;;7.82;5.57;;;;;;;22.86;64.01;98799.97;5040207;28;20049;-94
2022/08/09 07:37:49;;;;;;;9.50;5.60;;;;;;;23.02;63.19;98829.50;5040393;28;20033;-93
2022/08/09 07:40:18;;;;;;;8.80;5.45;;;;;;;23.15;62.47;98824.84;5039565;28;20399;-93
2022/08/09 07:42:50;;;;;;;;;;;;;;;23.44;62.19;98837.09;5038810;28;20046;-96
2022/08/09 07:45:20;;;;;;;9.73;5.00;;;;;;;23.57;61.59;98836.03;5036982;28;20373;-95
2022/08/09 07:47:46;;;;;;;8.40;5.82;;;;;;;23.70;61.40;98814.19;5037840;28;20037;-94
2022/08/09 07:50:11;;;;;;;9.13;6.10;;;;;;;23.80;60.65;98837.91;5037476;28;20592;-92
2022/08/09 07:52:40;;;;;;;7.70;5.03;;;;;;;23.86;60.75;98823.84;5037765;28;20041;-96
2022/08/09 07:55:07;;;;;;;9.52;5.85;;;;;;;24.30;59.78;98839.19;5038059;28;20038;-94
2022/08/09 07:57:34;;;;;;;8.70;5.95;;;;;;;24.23;59.45;98829.84;5037861;28;20041;-94
2022/08/09 08:00:00;;;;;;;8.52;5.45;;;;;;;24.18;59.87;98815.75;5037700;28;20042;-96
2022/08/09 08:02:27;;;;;;;8.52;5.93;;;;;;;23.80;61.25;98817.03;5042866;28;20073;-96
2022/08/09 08:04:53;;;;;;;9.55;5.90;;;;;;;24.10;60.69;98827.28;5042470;28;20053;-96
2022/08/09 08:07:20;;;;;;;7.43;5.72;;;;;;;24.22;60.72;98836.25;5037137;28;20108;-94
2022/08/09 08:09:48;;;;;;;14.88;5.90;;;;;;;24.21;60.13;98820.94;5043008;28;20048;-96
2022/08/09 08:12:14;;;;;;;8.52;5.97;;;;;;;24.02;60.65;98815.31;5039461;28;20045;-96
2022/08/09 08:14:42;;;;;;;8.05;6.13;;;;;;;23.83;60.37;98816.78;5040474;28;20056;-96
2022/08/09 08:17:08;;;;;;;9.15;6.35;;;;;;;23.84;61.27;98831.25;5038470;28;20041;-92
2022/08/09 08:19:35;;;;;;;8.80;6.60;;;;;;;24.10;61.12;98838.13;5038988;28;20045;-96
2022/08/09 08:22:01;;;;;;;7.05;5.93;;;;;;;24.35;58.86;98808.94;5042274;28;20122;-96
2022/08/09 08:24:28;;;;;;;10.38;6.10;;;;;;;24.30;60.11;98839.19;5039140;28;20033;-95
2022/08/09 08:26:54;;;;;;;8.35;6.03;;;;;;;24.55;59.57;98816.31;5041559;28;20049;-95
2022/08/09 08:29:20;;;;;;;9.93;6.05;;;;;;;24.40;59.07;98829.31;5040797;28;20037;-96
2022/08/09 08:31:48;;;;;;;7.95;5.57;;;;;;;24.37;60.03;98826.81;5040823;28;20102;-96
2022/08/09 08:34:16;;;;;;;9.70;6.53;;;;;;;24.27;59.18;98825.88;5043117;28;20045;-96
2022/08/09 08:36:43;;;;;;;11.73;6.38;;;;;;;24.55;58.90;98829.91;5048145;28;20045;-96
2022/08/09 08:39:10;;;;;;;8.68;5.80;;;;;;;24.48;58.48;98817.81;5044197;28;20120;-96
2022/08/09 08:41:37;;;;;;;9.65;6.40;;;;;;;24.65;59.51;98849.03;5042156;28;20068;-93
2022/08/09 08:44:03;;;;;;;9.52;5.85;;;;;;;24.31;58.71;98818.31;5038273;28;20049;-96
2022/08/09 08:46:34;;;;;;;12.52;6.80;;;;;;;24.07;59.36;98830.25;5038078;28;20045;-94
2022/08/09 08:49:01;;;;;;;9.65;7.30;;;;;;;23.92;59.82;98842.34;5035692;28;20037;-95
2022/08/09 08:51:29;;;;;;;12.10;7.93;;;;;;;23.92;59.81;98843.22;5035125;28;20033;-94
2022/08/09 08:53:55;;;;;;;12.45;8.25;;;;;;;23.93;59.94;98853.09;5036034;28;20045;-95
2022/08/09 08:56:22;;;;;;;8.63;6.90;;;;;;;23.81;59.76;98836.91;5036718;28;20324;-95
2022/08/09 08:58:48;;;;;;;9.60;7.55;;;;;;;24.00;59.34;98837.16;5037934;28;20103;-92
2022/08/09 09:01:16;;;;;;;8.68;6.70;;;;;;;24.01;58.79;98851.59;5033271;28;20049;-92
2022/08/09 09:03:43;;;;;;;9.77;6.90;;;;;;;24.14;58.04;98826.03;5036033;28;20050;-92
2022/08/09 09:06:14;;;;;;;9.52;6.72;;;;;;;24.52;56.78;98837.47;5036183;28;20042;-94
2022/08/09 09:08:43;;;;;;;10.18;6.60;;;;;;;24.76;56.88;98835.38;5036093;28;20069;-95
2022/08/09 09:11:10;;;;;;;9.35;6.90;;;;;;;24.73;56.83;98826.63;5036641;28;20041;-95
2022/08/09 09:13:38;;;;;;;8.23;6.47;;;;;;;24.84;56.54;98834.75;5035469;28;20053;-94
2022/08/09 09:16:04;;;;;;;10.50;6.65;;;;;;;24.77;57.02;98831.69;5035407;28;20465;-93
2022/08/09 09:18:30;;;;;;;9.43;6.50;;;;;;;25.06;56.90;98836.47;5036115;28;20128;-95
2022/08/09 09:20:57;;;;;;;8.70;6.60;;;;;;;25.25;56.85;98833.09;5038445;28;20109;-93
2022/08/09 09:23:40;;;;;;;7.80;6.60;;;;;;;25.00;56.77;98820.69;5038054;28;20049;-90
2022/08/09 09:26:06;;;;;;;11.52;6.30;;;;;;;25.46;55.63;98833.06;5039813;28;20639;-96
2022/08/09 09:28:34;;;;;;;8.30;6.50;;;;;;;25.51;54.27;98802.72;5037424;28;20045;-95
2022/08/09 09:31:00;;;;;;;7.43;6.10;;;;;;;25.52;54.96;98818.91;5034609;28;20052;-96
2022/08/09 09:33:32;;;;;;;9.98;6.28;;;;;;;25.89;55.04;98810.22;5035537;28;20083;-95
2022/08/09 09:35:59;;;;;;;12.07;6.22;;;;;;;26.23;53.88;98821.66;5039565;28;20028;-96
2022/08/09 09:38:41;;;;;;;9.02;6.43;;;;;;;26.31;53.51;98829.13;5041980;28;20050;-95
2022/08/09 09:41:07;;;;;;;8.70;6.60;;;;;;;26.35;53.36;98795.16;5048295;28;20052;-94
2022/08/09 09:43:33;;;;;;;9.35;6.93;;;;;;;26.78;51.97;98823.03;5044548;28;20111;-94
2022/08/09 09:46:01;;;;;;;9.52;6.57;;;;;;;26.83;51.34;98798.94;5040384;28;20046;-94
2022/08/09 09:48:28;;;;;;;8.75;6.40;;;;;;;26.59;51.74;98785.72;5038172;28;20506;-96
2022/08/09 09:50:55;;;;;;;9.85;6.05;;;;;;;26.62;51.78;98794.47;5037769;28;20050;-96
2022/08/09 09:53:23;;;;;;;10.20;6.30;;;;;;;27.22;50.25;98797.06;5039211;28;20044;-96
2022/08/09 09:55:53;;;;;;;11.02;6.22;;;;;;;27.18;49.58;98798.31;5042081;28;20041;-96
2022/08/09 09:58:20;;;;;;;8.20;6.20;;;;;;;27.42;49.87;98819.69;5041463;28;20394;-96
2022/08/09 10:00:48;;;;;;;8.32;6.72;;;;;;;26.52;51.49;98799.00;5041299;28;20065;-94
2022/08/09 10:03:13;;;;;;;7.33;6.53;;;;;;;26.50;51.90;98827.44;5041740;28;20056;-96
2022/08/09 10:05:58;;;;;;;9.40;6.72;;;;;;;25.87;52.76;98809.44;5040956;28;20279;-95
2022/08/09 10:08:24;;;;;;;9.20;6.28;;;;;;;25.79;52.78;98798.41;5041737;28;20073;-96
2022/08/09 10:10:52;;;;;;;10.38;6.80;;;;;;;26.02;52.58;98804.50;5042054;28;20045;-94
2022/08/09 10:13:18;;;;;;;7.50;6.25;;;;;;;26.11;52.33;98816.44;5038125;28;20057;-94
2022/08/09 10:15:50;;;;;;;8.75;6.30;;;;;;;26.41;52.06;98791.84;5040880;28;21399;-96
2022/08/09 10:18:17;;;;;;;8.25;5.97;;;;;;;27.13;50.45;98799.75;5046741;28;20041;-96
2022/08/09 10:20:44;;;;;;;10.87;6.57;;;;;;;27.47;49.24;98815.66;5041362;28;20033;-95
2022/08/09 10:23:14;;;;;;;10.50;6.22;;;;;;;28.19;47.64;98795.84;5045702;28;20049;-96
2022/08/09 10:25:42;;;;;;;9.38;6.70;;;;;;;28.36;46.65;98810.53;5045726;28;20452;-95
2022/08/09 10:28:10;;;;;;;9.15;6.32;;;;;;;27.56;47.93;98792.91;5050340;28;20132;-95
2022/08/09 10:30:36;;;;;;;;;;;;;;;27.18;50.45;98805.66;5045474;28;20129;-95
2022/08/09 10:33:03;;;;;;;9.98;6.55;;;;;;;26.82;49.21;98789.00;5041870;28;19960;-96
2022/08/09 10:35:30;;;;;;;9.93;6.15;;;;;;;26.33;51.07;98769.88;5041550;28;20045;-95
2022/08/09 10:37:59;;;;;;;8.50;6.22;;;;;;;26.47;50.72;98767.75;5038359;28;20523;-95
2022/08/09 10:40:26;;;;;;;7.30;6.30;;;;;;;26.74;49.93;98781.56;5044620;28;20041;-96
2022/08/09 10:42:53;;;;;;;10.75;6.75;;;;;;;26.58;50.45;98776.66;5044494;28;20042;-95
2022/08/09 10:45:22;;;;;;;8.52;6.18;;;;;;;26.37;50.38;98767.72;5040218;28;20068;-95
2022/08/09 10:47:58;;;;;;;8.27;6.38;;;;;;;26.64;50.01;98756.16;5045390;28;20072;-96
2022/08/09 10:51:05;;;;;;;7.15;5.80;;;;;;;26.67;49.50;98739.47;5043337;28;20045;-96
2022/08/09 10:53:27;;;;;;;8.00;5.85;;;;;;;27.52;48.19;98745.06;5042791;28;20073;-96
2022/08/09 10:56:15;;;;;;;13.20;6.70;;;;;;;27.70;47.90;98756.94;5045213;28;20042;-95
2022/08/09 10:58:41;;;;;;;8.73;6.50;;;;;;;27.42;47.60;98745.97;5041615;28;20076;-96
2022/08/09 11:01:38;;;;;;;8.48;6.30;;;;;;;27.16;48.38;98736.69;5044159;28;20121;-95
2022/08/09 11:04:17;;;;;;;9.25;6.63;;;;;;;27.24;47.79;98754.09;5028399;28;20077;-95
2022/08/09 11:06:44;;;;;;;9.57;6.45;;;;;;;27.12;49.14;98727.06;5042755;28;20038;-96
2022/08/09 11:09:14;;;;;;;9.43;6.97;;;;;;;27.20;48.54;98735.38;5048480;28;20045;-96
2022/08/09 11:12:09;;;;;;;8.48;5.72;;;;;;;27.24;48.31;98765.00;5044791;28;20084;-96
2022/08/09 11:14:41;;;;;;;9.97;6.40;;;;;;;27.04;48.00;98733.25;5049258;28;20033;-94
2022/08/09 11:17:44;;;;;;;8.98;6.57;;;;;;;27.14;48.06;98730.50;5050525;28;20286;-96
2022/08/09 11:20:10;;;;;;;8.98;6.50;;;;;;;27.21;47.74;98732.50;5047771;28;20051;-96
2022/08/09 11:23:19;;;;;;;11.52;6.95;;;;;;;27.20;47.74;98751.78;5047838;28;20250;-96
2022/08/09 11:25:47;;;;;;;10.10;6.78;;;;;;;27.23;47.35;98716.84;5052518;28;20130;-96
2022/08/09 11:28:32;;;;;;;8.32;7.00;;;;;;;27.04;47.28;98717.75;5046414;28;20057;-94
2022/08/09 11:30:59;;;;;;;8.30;7.25;;;;;;;27.08;47.38;98725.63;5044724;28;20046;-95
2022/08/09 11:33:37;;;;;;;11.30;7.45;;;;;;;27.59;46.92;98738.88;5051000;28;20049;-96
2022/08/09 11:36:05;;;;;;;7.93;6.97;;;;;;;27.58;45.61;98712.53;5048582;28;20096;-95
2022/08/09 11:38:34;;;;;;;9.73;6.72;;;;;;;27.85;44.39;98728.13;5045637;28;20045;-96
2022/08/09 11:41:27;;;;;;;9.67;6.77;;;;;;;28.11;44.68;98741.06;5047547;28;20438;-96